sensor_id;sensor_type;location;lat;lon;timestamp;temperature;humidity
19829;DHT22;10075;50.924;4.396;2023-07-09T00:00:47;25.30;99.90
19829;DHT22;10075;50.924;4.396;2023-07-09T00:03:14;25.20;99.90
19829;DHT22;10075;50.924;4.396;2023-07-09T00:05:41;25.20;99.90
19829;DHT22;10075;50.924;4.396;2023-07-09T00:08:16;25.10;99.90
19829;DHT22;10075;50.924;4.396;2023-07-09T00:10:48;25.20;99.90
19829;DHT22;10075;50.924;4.396;2023-07-09T00:13:15;25.10;99.90
19829;DHT22;10075;50.924;4.396;2023-07-09T00:15:42;25.10;99.90
19829;DHT22;10075;50.924;4.396;2023-07-09T00:18:09;25.10;99.90
19829;DHT22;10075;50.924;4.396;2023-07-09T00:20:36;25.10;99.90
19829;DHT22;10075;50.924;4.396;2023-07-09T00:23:03;25.10;99.90
19829;DHT22;10075;50.924;4.396;2023-07-09T00:25:32;25.10;99.90
19829;DHT22;10075;50.924;4.396;2023-07-09T00:28:01;25.10;99.90
19829;DHT22;10075;50.924;4.396;2023-07-09T00:30:28;25.10;99.90
19829;DHT22;10075;50.924;4.396;2023-07-09T00:32:55;25.10;99.90
19829;DHT22;10075;50.924;4.396;2023-07-09T00:35:23;25.10;99.90
19829;DHT22;10075;50.924;4.396;2023-07-09T00:37:51;25.10;99.90
19829;DHT22;10075;50.924;4.396;2023-07-09T00:40:19;25.10;99.90
19829;DHT22;10075;50.924;4.396;2023-07-09T00:42:50;25.10;99.90
19829;DHT22;10075;50.924;4.396;2023-07-09T00:45:19;25.10;99.90
19829;DHT22;10075;50.924;4.396;2023-07-09T00:47:50;25.00;99.90
19829;DHT22;10075;50.924;4.396;2023-07-09T00:50:30;25.00;99.90
19829;DHT22;10075;50.924;4.396;2023-07-09T00:53:02;25.10;99.90
19829;DHT22;10075;50.924;4.396;2023-07-09T00:55:40;25.00;99.90
19829;DHT22;10075;50.924;4.396;2023-07-09T00:58:12;25.00;99.90
19829;DHT22;10075;50.924;4.396;2023-07-09T01:00:44;24.90;99.90
19829;DHT22;10075;50.924;4.396;2023-07-09T01:03:20;24.90;99.90
19829;DHT22;10075;50.924;4.396;2023-07-09T01:05:48;24.90;99.90
19829;DHT22;10075;50.924;4.396;2023-07-09T01:08:17;24.80;99.90
19829;DHT22;10075;50.924;4.396;2023-07-09T01:10:45;24.80;99.90
19829;DHT22;10075;50.924;4.396;2023-07-09T01:13:13;24.80;99.90
19829;DHT22;10075;50.924;4.396;2023-07-09T01:15:41;24.80;99.90
19829;DHT22;10075;50.924;4.396;2023-07-09T01:18:08;24.80;99.90
19829;DHT22;10075;50.924;4.396;2023-07-09T01:20:38;24.70;99.90
19829;DHT22;10075;50.924;4.396;2023-07-09T01:23:07;24.70;99.90
19829;DHT22;10075;50.924;4.396;2023-07-09T01:25:43;24.70;99.90
19829;DHT22;10075;50.924;4.396;2023-07-09T01:28:11;24.70;99.90
19829;DHT22;10075;50.924;4.396;2023-07-09T01:30:40;24.70;99.90
19829;DHT22;10075;50.924;4.396;2023-07-09T01:33:07;24.70;99.90
19829;DHT22;10075;50.924;4.396;2023-07-09T01:35:38;24.60;99.90
19829;DHT22;10075;50.924;4.396;2023-07-09T01:38:08;24.70;99.90
19829;DHT22;10075;50.924;4.396;2023-07-09T01:40:36;24.60;99.90
19829;DHT22;10075;50.924;4.396;2023-07-09T01:43:04;24.60;99.90
19829;DHT22;10075;50.924;4.396;2023-07-09T01:45:33;24.60;99.90
19829;DHT22;10075;50.924;4.396;2023-07-09T01:48:01;24.60;99.90
19829;DHT22;10075;50.924;4.396;2023-07-09T01:50:28;24.60;99.90
19829;DHT22;10075;50.924;4.396;2023-07-09T01:52:56;24.50;99.90
19829;DHT22;10075;50.924;4.396;2023-07-09T01:55:24;24.50;99.90
19829;DHT22;10075;50.924;4.396;2023-07-09T01:57:51;24.50;99.90
19829;DHT22;10075;50.924;4.396;2023-07-09T02:00:18;24.50;99.90
19829;DHT22;10075;50.924;4.396;2023-07-09T02:02:46;24.50;99.90
19829;DHT22;10075;50.924;4.396;2023-07-09T02:05:14;24.50;99.90
19829;DHT22;10075;50.924;4.396;2023-07-09T02:07:42;24.50;99.90
19829;DHT22;10075;50.924;4.396;2023-07-09T02:10:10;24.40;99.90
19829;DHT22;10075;50.924;4.396;2023-07-09T02:12:38;24.40;99.90
19829;DHT22;10075;50.924;4.396;2023-07-09T02:15:07;24.40;99.90
19829;DHT22;10075;50.924;4.396;2023-07-09T02:17:34;24.40;99.90
19829;DHT22;10075;50.924;4.396;2023-07-09T02:20:01;24.40;99.90
19829;DHT22;10075;50.924;4.396;2023-07-09T02:22:30;24.30;99.90
19829;DHT22;10075;50.924;4.396;2023-07-09T02:24:57;24.30;99.90
19829;DHT22;10075;50.924;4.396;2023-07-09T02:27:24;24.30;99.90
19829;DHT22;10075;50.924;4.396;2023-07-09T02:29:52;24.30;99.90
19829;DHT22;10075;50.924;4.396;2023-07-09T02:32:21;24.30;99.90
19829;DHT22;10075;50.924;4.396;2023-07-09T02:34:49;24.30;99.90
19829;DHT22;10075;50.924;4.396;2023-07-09T02:37:19;24.30;99.90
19829;DHT22;10075;50.924;4.396;2023-07-09T02:39:46;24.30;99.90
19829;DHT22;10075;50.924;4.396;2023-07-09T02:42:14;24.30;99.90
19829;DHT22;10075;50.924;4.396;2023-07-09T02:44:42;24.20;99.90
19829;DHT22;10075;50.924;4.396;2023-07-09T02:47:11;24.20;99.90
19829;DHT22;10075;50.924;4.396;2023-07-09T02:49:38;24.20;99.90
19829;DHT22;10075;50.924;4.396;2023-07-09T02:52:06;24.10;99.90
19829;DHT22;10075;50.924;4.396;2023-07-09T02:54:33;24.20;99.90
19829;DHT22;10075;50.924;4.396;2023-07-09T02:57:00;24.20;99.90
19829;DHT22;10075;50.924;4.396;2023-07-09T02:59:27;24.20;99.90
19829;DHT22;10075;50.924;4.396;2023-07-09T03:01:55;24.10;99.90
19829;DHT22;10075;50.924;4.396;2023-07-09T03:04:23;24.10;99.90
19829;DHT22;10075;50.924;4.396;2023-07-09T03:06:50;24.00;99.90
19829;DHT22;10075;50.924;4.396;2023-07-09T03:09:17;24.00;99.90
19829;DHT22;10075;50.924;4.396;2023-07-09T03:11:44;24.00;99.90
19829;DHT22;10075;50.924;4.396;2023-07-09T03:14:13;24.00;99.90
19829;DHT22;10075;50.924;4.396;2023-07-09T03:16:40;24.00;99.90
19829;DHT22;10075;50.924;4.396;2023-07-09T03:19:07;23.90;99.90
19829;DHT22;10075;50.924;4.396;2023-07-09T03:21:35;23.90;99.90
19829;DHT22;10075;50.924;4.396;2023-07-09T03:24:03;23.90;99.90
19829;DHT22;10075;50.924;4.396;2023-07-09T03:26:30;23.90;99.90
19829;DHT22;10075;50.924;4.396;2023-07-09T03:28:57;23.90;99.90
19829;DHT22;10075;50.924;4.396;2023-07-09T03:31:24;23.80;99.90
19829;DHT22;10075;50.924;4.396;2023-07-09T03:33:52;23.80;99.90
19829;DHT22;10075;50.924;4.396;2023-07-09T03:36:19;23.80;99.90
19829;DHT22;10075;50.924;4.396;2023-07-09T03:38:48;23.80;99.90
19829;DHT22;10075;50.924;4.396;2023-07-09T03:41:15;23.70;99.90
19829;DHT22;10075;50.924;4.396;2023-07-09T03:43:42;23.70;99.90
19829;DHT22;10075;50.924;4.396;2023-07-09T03:46:09;23.80;99.90
19829;DHT22;10075;50.924;4.396;2023-07-09T03:48:37;23.80;99.90
19829;DHT22;10075;50.924;4.396;2023-07-09T03:51:04;23.80;99.90
19829;DHT22;10075;50.924;4.396;2023-07-09T03:53:31;23.90;99.90
19829;DHT22;10075;50.924;4.396;2023-07-09T03:55:59;23.90;99.90
19829;DHT22;10075;50.924;4.396;2023-07-09T03:58:26;23.90;99.90
19829;DHT22;10075;50.924;4.396;2023-07-09T04:00:54;23.90;99.90
19829;DHT22;10075;50.924;4.396;2023-07-09T04:03:22;23.90;99.90
19829;DHT22;10075;50.924;4.396;2023-07-09T04:05:49;23.80;99.90
19829;DHT22;10075;50.924;4.396;2023-07-09T04:08:16;23.90;99.90
19829;DHT22;10075;50.924;4.396;2023-07-09T04:10:43;23.90;99.90
19829;DHT22;10075;50.924;4.396;2023-07-09T04:13:12;23.90;99.90
19829;DHT22;10075;50.924;4.396;2023-07-09T04:15:39;23.90;99.90
19829;DHT22;10075;50.924;4.396;2023-07-09T04:18:06;23.80;99.90
19829;DHT22;10075;50.924;4.396;2023-07-09T04:20:33;23.80;99.90
19829;DHT22;10075;50.924;4.396;2023-07-09T04:23:01;23.80;99.90
19829;DHT22;10075;50.924;4.396;2023-07-09T04:25:28;23.80;99.90
19829;DHT22;10075;50.924;4.396;2023-07-09T04:27:55;23.80;99.90
19829;DHT22;10075;50.924;4.396;2023-07-09T04:30:24;23.90;99.90
19829;DHT22;10075;50.924;4.396;2023-07-09T04:32:51;23.90;99.90
19829;DHT22;10075;50.924;4.396;2023-07-09T04:35:18;23.90;99.90
19829;DHT22;10075;50.924;4.396;2023-07-09T04:37:45;23.80;99.90
19829;DHT22;10075;50.924;4.396;2023-07-09T04:40:13;23.90;99.90
19829;DHT22;10075;50.924;4.396;2023-07-09T04:42:41;23.90;99.90
19829;DHT22;10075;50.924;4.396;2023-07-09T04:45:10;23.90;99.90
19829;DHT22;10075;50.924;4.396;2023-07-09T04:47:39;23.90;99.90
19829;DHT22;10075;50.924;4.396;2023-07-09T04:50:08;23.90;99.90
19829;DHT22;10075;50.924;4.396;2023-07-09T04:52:36;24.00;99.90
19829;DHT22;10075;50.924;4.396;2023-07-09T04:55:04;24.00;99.90
19829;DHT22;10075;50.924;4.396;2023-07-09T04:57:31;24.10;99.90
19829;DHT22;10075;50.924;4.396;2023-07-09T04:59:58;24.10;99.90
19829;DHT22;10075;50.924;4.396;2023-07-09T05:02:25;24.20;99.90
19829;DHT22;10075;50.924;4.396;2023-07-09T05:04:53;24.20;99.90
19829;DHT22;10075;50.924;4.396;2023-07-09T05:07:20;24.20;99.90
19829;DHT22;10075;50.924;4.396;2023-07-09T05:09:47;24.30;99.90
19829;DHT22;10075;50.924;4.396;2023-07-09T05:12:14;24.40;99.90
19829;DHT22;10075;50.924;4.396;2023-07-09T05:14:41;24.50;99.90
19829;DHT22;10075;50.924;4.396;2023-07-09T05:17:08;24.50;99.90
19829;DHT22;10075;50.924;4.396;2023-07-09T05:19:36;24.60;99.90
19829;DHT22;10075;50.924;4.396;2023-07-09T05:22:04;24.60;99.90
19829;DHT22;10075;50.924;4.396;2023-07-09T05:24:31;24.70;99.90
19829;DHT22;10075;50.924;4.396;2023-07-09T05:26:58;24.80;99.90
19829;DHT22;10075;50.924;4.396;2023-07-09T05:29:25;24.90;99.90
19829;DHT22;10075;50.924;4.396;2023-07-09T05:31:52;24.90;99.90
19829;DHT22;10075;50.924;4.396;2023-07-09T05:34:19;25.00;99.90
19829;DHT22;10075;50.924;4.396;2023-07-09T05:36:47;25.20;99.90
19829;DHT22;10075;50.924;4.396;2023-07-09T05:39:15;25.20;99.90
19829;DHT22;10075;50.924;4.396;2023-07-09T05:41:42;25.30;99.90
19829;DHT22;10075;50.924;4.396;2023-07-09T05:44:09;25.40;99.90
19829;DHT22;10075;50.924;4.396;2023-07-09T05:46:37;25.40;99.90
19829;DHT22;10075;50.924;4.396;2023-07-09T05:49:04;25.40;99.90
19829;DHT22;10075;50.924;4.396;2023-07-09T05:51:31;25.50;99.90
19829;DHT22;10075;50.924;4.396;2023-07-09T05:53:59;25.60;99.90
19829;DHT22;10075;50.924;4.396;2023-07-09T05:56:27;25.70;99.90
19829;DHT22;10075;50.924;4.396;2023-07-09T05:58:54;25.70;99.90
19829;DHT22;10075;50.924;4.396;2023-07-09T06:01:22;25.80;99.90
19829;DHT22;10075;50.924;4.396;2023-07-09T06:03:49;25.80;99.90
19829;DHT22;10075;50.924;4.396;2023-07-09T06:06:16;25.90;99.90
19829;DHT22;10075;50.924;4.396;2023-07-09T06:08:43;25.90;99.90
19829;DHT22;10075;50.924;4.396;2023-07-09T06:11:10;26.00;99.90
19829;DHT22;10075;50.924;4.396;2023-07-09T06:13:38;26.10;99.90
19829;DHT22;10075;50.924;4.396;2023-07-09T06:16:05;26.20;99.90
19829;DHT22;10075;50.924;4.396;2023-07-09T06:18:32;26.30;99.90
19829;DHT22;10075;50.924;4.396;2023-07-09T06:21:01;26.30;99.90
19829;DHT22;10075;50.924;4.396;2023-07-09T06:23:29;26.40;99.90
19829;DHT22;10075;50.924;4.396;2023-07-09T06:25:56;26.50;99.90
19829;DHT22;10075;50.924;4.396;2023-07-09T06:28:25;26.50;99.90
19829;DHT22;10075;50.924;4.396;2023-07-09T06:30:56;26.50;99.90
19829;DHT22;10075;50.924;4.396;2023-07-09T06:33:24;26.40;99.90
19829;DHT22;10075;50.924;4.396;2023-07-09T06:35:54;26.40;99.90
19829;DHT22;10075;50.924;4.396;2023-07-09T06:38:22;26.30;99.90
19829;DHT22;10075;50.924;4.396;2023-07-09T06:40:49;26.30;99.90
19829;DHT22;10075;50.924;4.396;2023-07-09T06:43:16;26.30;99.90
19829;DHT22;10075;50.924;4.396;2023-07-09T06:45:50;26.40;99.90
19829;DHT22;10075;50.924;4.396;2023-07-09T06:48:19;26.50;99.90
19829;DHT22;10075;50.924;4.396;2023-07-09T06:50:46;26.60;99.90
19829;DHT22;10075;50.924;4.396;2023-07-09T06:53:14;26.70;99.90
19829;DHT22;10075;50.924;4.396;2023-07-09T06:55:41;26.80;99.90
19829;DHT22;10075;50.924;4.396;2023-07-09T06:58:08;26.90;99.90
19829;DHT22;10075;50.924;4.396;2023-07-09T07:00:36;27.10;99.90
19829;DHT22;10075;50.924;4.396;2023-07-09T07:03:03;27.10;99.90
19829;DHT22;10075;50.924;4.396;2023-07-09T07:05:32;27.20;99.90
19829;DHT22;10075;50.924;4.396;2023-07-09T07:07:59;27.20;99.90
19829;DHT22;10075;50.924;4.396;2023-07-09T07:10:26;27.10;99.90
19829;DHT22;10075;50.924;4.396;2023-07-09T07:12:54;27.00;99.90
19829;DHT22;10075;50.924;4.396;2023-07-09T07:15:21;26.90;99.90
19829;DHT22;10075;50.924;4.396;2023-07-09T07:17:49;26.90;99.90
19829;DHT22;10075;50.924;4.396;2023-07-09T07:20:16;26.80;99.90
19829;DHT22;10075;50.924;4.396;2023-07-09T07:22:45;26.70;99.90
19829;DHT22;10075;50.924;4.396;2023-07-09T07:25:12;26.70;99.90
19829;DHT22;10075;50.924;4.396;2023-07-09T07:27:39;26.70;99.90
19829;DHT22;10075;50.924;4.396;2023-07-09T07:30:08;26.80;99.90
19829;DHT22;10075;50.924;4.396;2023-07-09T07:32:36;26.80;99.90
19829;DHT22;10075;50.924;4.396;2023-07-09T07:35:04;26.90;99.90
19829;DHT22;10075;50.924;4.396;2023-07-09T07:37:31;26.90;99.90
19829;DHT22;10075;50.924;4.396;2023-07-09T07:40:00;27.10;99.90
19829;DHT22;10075;50.924;4.396;2023-07-09T07:42:27;27.10;99.90
19829;DHT22;10075;50.924;4.396;2023-07-09T07:44:54;27.10;99.90
19829;DHT22;10075;50.924;4.396;2023-07-09T07:47:22;27.20;99.90
19829;DHT22;10075;50.924;4.396;2023-07-09T07:49:49;27.20;99.90
19829;DHT22;10075;50.924;4.396;2023-07-09T07:52:15;27.20;99.90
19829;DHT22;10075;50.924;4.396;2023-07-09T07:54:42;27.30;99.90
19829;DHT22;10075;50.924;4.396;2023-07-09T07:57:11;27.40;99.90
19829;DHT22;10075;50.924;4.396;2023-07-09T07:59:38;27.40;99.90
19829;DHT22;10075;50.924;4.396;2023-07-09T08:02:07;27.40;99.90
19829;DHT22;10075;50.924;4.396;2023-07-09T08:04:37;27.40;99.90
19829;DHT22;10075;50.924;4.396;2023-07-09T08:07:06;27.40;99.90
19829;DHT22;10075;50.924;4.396;2023-07-09T08:09:33;27.40;99.90
19829;DHT22;10075;50.924;4.396;2023-07-09T08:12:00;27.40;99.90
19829;DHT22;10075;50.924;4.396;2023-07-09T08:14:35;27.50;99.90
19829;DHT22;10075;50.924;4.396;2023-07-09T08:17:03;27.60;99.90
19829;DHT22;10075;50.924;4.396;2023-07-09T08:19:30;27.50;99.90
19829;DHT22;10075;50.924;4.396;2023-07-09T08:21:58;27.60;99.90
19829;DHT22;10075;50.924;4.396;2023-07-09T08:24:25;27.50;99.90
19829;DHT22;10075;50.924;4.396;2023-07-09T08:26:52;27.50;99.90
19829;DHT22;10075;50.924;4.396;2023-07-09T08:29:19;27.50;99.90
19829;DHT22;10075;50.924;4.396;2023-07-09T08:31:47;27.50;99.90
19829;DHT22;10075;50.924;4.396;2023-07-09T08:34:14;27.60;99.90
19829;DHT22;10075;50.924;4.396;2023-07-09T08:36:41;27.60;99.90
19829;DHT22;10075;50.924;4.396;2023-07-09T08:39:10;27.70;99.90
19829;DHT22;10075;50.924;4.396;2023-07-09T08:41:40;27.80;99.90
19829;DHT22;10075;50.924;4.396;2023-07-09T08:44:24;27.90;99.90
19829;DHT22;10075;50.924;4.396;2023-07-09T08:47:00;28.00;99.90
19829;DHT22;10075;50.924;4.396;2023-07-09T08:49:35;28.10;99.90
19829;DHT22;10075;50.924;4.396;2023-07-09T08:52:07;28.30;99.90
19829;DHT22;10075;50.924;4.396;2023-07-09T08:54:37;28.50;99.90
19829;DHT22;10075;50.924;4.396;2023-07-09T08:57:15;28.60;99.60
19829;DHT22;10075;50.924;4.396;2023-07-09T08:59:44;28.70;99.50
19829;DHT22;10075;50.924;4.396;2023-07-09T09:02:19;28.80;99.20
19829;DHT22;10075;50.924;4.396;2023-07-09T09:04:49;29.00;98.60
19829;DHT22;10075;50.924;4.396;2023-07-09T09:07:21;29.10;98.20
19829;DHT22;10075;50.924;4.396;2023-07-09T09:09:57;29.10;97.90
19829;DHT22;10075;50.924;4.396;2023-07-09T09:12:28;29.10;98.20
19829;DHT22;10075;50.924;4.396;2023-07-09T09:14:58;29.10;98.00
19829;DHT22;10075;50.924;4.396;2023-07-09T09:17:27;29.10;98.00
19829;DHT22;10075;50.924;4.396;2023-07-09T09:19:56;29.20;98.30
19829;DHT22;10075;50.924;4.396;2023-07-09T09:22:29;29.40;98.10
19829;DHT22;10075;50.924;4.396;2023-07-09T09:25:03;29.50;98.00
19829;DHT22;10075;50.924;4.396;2023-07-09T09:27:32;29.50;98.50
19829;DHT22;10075;50.924;4.396;2023-07-09T09:29:59;29.60;97.70
19829;DHT22;10075;50.924;4.396;2023-07-09T09:32:29;29.70;97.30
19829;DHT22;10075;50.924;4.396;2023-07-09T09:34:57;29.60;97.50
19829;DHT22;10075;50.924;4.396;2023-07-09T09:37:26;29.50;97.90
19829;DHT22;10075;50.924;4.396;2023-07-09T09:39:54;29.60;97.80
19829;DHT22;10075;50.924;4.396;2023-07-09T09:42:23;29.70;97.90
19829;DHT22;10075;50.924;4.396;2023-07-09T09:44:54;29.80;97.80
19829;DHT22;10075;50.924;4.396;2023-07-09T09:47:21;29.80;98.20
19829;DHT22;10075;50.924;4.396;2023-07-09T09:49:53;29.90;98.20
19829;DHT22;10075;50.924;4.396;2023-07-09T09:52:23;30.00;98.80
19829;DHT22;10075;50.924;4.396;2023-07-09T09:54:55;30.10;97.60
19829;DHT22;10075;50.924;4.396;2023-07-09T09:57:24;30.30;97.60
19829;DHT22;10075;50.924;4.396;2023-07-09T09:59:54;30.30;97.40
19829;DHT22;10075;50.924;4.396;2023-07-09T10:02:24;30.40;97.20
19829;DHT22;10075;50.924;4.396;2023-07-09T10:04:52;30.60;97.10
19829;DHT22;10075;50.924;4.396;2023-07-09T10:07:24;30.70;96.60
19829;DHT22;10075;50.924;4.396;2023-07-09T10:09:55;30.80;96.50
19829;DHT22;10075;50.924;4.396;2023-07-09T10:12:36;31.10;96.60
19829;DHT22;10075;50.924;4.396;2023-07-09T10:15:18;31.40;96.20
19829;DHT22;10075;50.924;4.396;2023-07-09T10:17:54;31.70;95.90
19829;DHT22;10075;50.924;4.396;2023-07-09T10:20:33;31.90;96.00
19829;DHT22;10075;50.924;4.396;2023-07-09T10:23:04;32.10;95.00
19829;DHT22;10075;50.924;4.396;2023-07-09T10:25:40;32.20;94.40
19829;DHT22;10075;50.924;4.396;2023-07-09T10:28:43;32.00;94.00
19829;DHT22;10075;50.924;4.396;2023-07-09T10:31:19;31.90;94.60
19829;DHT22;10075;50.924;4.396;2023-07-09T10:33:56;31.90;93.90
19829;DHT22;10075;50.924;4.396;2023-07-09T10:36:44;32.00;93.50
19829;DHT22;10075;50.924;4.396;2023-07-09T10:39:17;32.10;93.40
19829;DHT22;10075;50.924;4.396;2023-07-09T10:41:46;32.20;93.50
19829;DHT22;10075;50.924;4.396;2023-07-09T10:44:18;32.20;93.00
19829;DHT22;10075;50.924;4.396;2023-07-09T10:46:49;32.10;92.70
19829;DHT22;10075;50.924;4.396;2023-07-09T10:49:18;31.90;93.30
19829;DHT22;10075;50.924;4.396;2023-07-09T10:51:50;31.70;93.30
19829;DHT22;10075;50.924;4.396;2023-07-09T10:54:27;31.70;94.40
19829;DHT22;10075;50.924;4.396;2023-07-09T10:56:59;31.50;93.70
19829;DHT22;10075;50.924;4.396;2023-07-09T10:59:30;31.50;94.20
19829;DHT22;10075;50.924;4.396;2023-07-09T11:02:01;31.50;94.20
19829;DHT22;10075;50.924;4.396;2023-07-09T11:04:39;31.40;93.80
19829;DHT22;10075;50.924;4.396;2023-07-09T11:07:13;31.40;93.10
19829;DHT22;10075;50.924;4.396;2023-07-09T11:09:42;31.40;93.00
19829;DHT22;10075;50.924;4.396;2023-07-09T11:12:13;31.40;93.20
19829;DHT22;10075;50.924;4.396;2023-07-09T11:14:42;31.50;93.40
19829;DHT22;10075;50.924;4.396;2023-07-09T11:17:14;31.40;93.30
19829;DHT22;10075;50.924;4.396;2023-07-09T11:19:43;31.40;92.80
19829;DHT22;10075;50.924;4.396;2023-07-09T11:22:20;31.30;93.00
19829;DHT22;10075;50.924;4.396;2023-07-09T11:24:48;31.30;92.90
19829;DHT22;10075;50.924;4.396;2023-07-09T11:27:18;31.30;92.70
19829;DHT22;10075;50.924;4.396;2023-07-09T11:29:55;31.20;92.80
19829;DHT22;10075;50.924;4.396;2023-07-09T11:32:23;31.20;93.70
19829;DHT22;10075;50.924;4.396;2023-07-09T11:34:50;31.10;93.20
19829;DHT22;10075;50.924;4.396;2023-07-09T11:37:20;31.00;93.10
19829;DHT22;10075;50.924;4.396;2023-07-09T11:39:49;30.90;93.30
19829;DHT22;10075;50.924;4.396;2023-07-09T11:42:29;30.70;93.40
19829;DHT22;10075;50.924;4.396;2023-07-09T11:45:08;30.70;93.80
19829;DHT22;10075;50.924;4.396;2023-07-09T11:47:40;30.60;93.40
19829;DHT22;10075;50.924;4.396;2023-07-09T11:50:23;30.50;93.50
19829;DHT22;10075;50.924;4.396;2023-07-09T11:52:55;30.50;93.20
19829;DHT22;10075;50.924;4.396;2023-07-09T11:55:27;30.30;93.50
19829;DHT22;10075;50.924;4.396;2023-07-09T11:57:57;30.00;93.70
19829;DHT22;10075;50.924;4.396;2023-07-09T12:00:27;29.80;94.30
19829;DHT22;10075;50.924;4.396;2023-07-09T12:02:55;29.60;94.40
19829;DHT22;10075;50.924;4.396;2023-07-09T12:05:27;29.30;94.70
19829;DHT22;10075;50.924;4.396;2023-07-09T12:07:56;29.10;94.70
19829;DHT22;10075;50.924;4.396;2023-07-09T12:10:25;28.90;95.10
19829;DHT22;10075;50.924;4.396;2023-07-09T12:12:56;28.70;95.70
19829;DHT22;10075;50.924;4.396;2023-07-09T12:15:25;28.50;95.90
19829;DHT22;10075;50.924;4.396;2023-07-09T12:17:56;28.40;96.30
19829;DHT22;10075;50.924;4.396;2023-07-09T12:20:24;28.40;96.60
19829;DHT22;10075;50.924;4.396;2023-07-09T12:22:51;28.30;96.80
19829;DHT22;10075;50.924;4.396;2023-07-09T12:25:22;28.20;97.60
19829;DHT22;10075;50.924;4.396;2023-07-09T12:27:50;28.00;97.90
19829;DHT22;10075;50.924;4.396;2023-07-09T12:30:18;28.00;99.40
19829;DHT22;10075;50.924;4.396;2023-07-09T12:32:46;27.80;99.90
19829;DHT22;10075;50.924;4.396;2023-07-09T12:35:16;27.70;99.90
19829;DHT22;10075;50.924;4.396;2023-07-09T12:37:44;27.60;99.90
19829;DHT22;10075;50.924;4.396;2023-07-09T12:40:15;27.40;99.90
19829;DHT22;10075;50.924;4.396;2023-07-09T12:42:44;27.30;99.90
19829;DHT22;10075;50.924;4.396;2023-07-09T12:45:16;27.20;99.90
19829;DHT22;10075;50.924;4.396;2023-07-09T12:47:45;26.80;99.90
19829;DHT22;10075;50.924;4.396;2023-07-09T12:50:33;26.30;99.90
19829;DHT22;10075;50.924;4.396;2023-07-09T12:53:03;26.00;99.90
19829;DHT22;10075;50.924;4.396;2023-07-09T12:55:38;25.70;99.90
19829;DHT22;10075;50.924;4.396;2023-07-09T12:58:10;25.40;99.90
19829;DHT22;10075;50.924;4.396;2023-07-09T13:00:38;25.30;99.90
19829;DHT22;10075;50.924;4.396;2023-07-09T13:03:13;25.30;99.90
19829;DHT22;10075;50.924;4.396;2023-07-09T13:05:52;25.50;99.90
19829;DHT22;10075;50.924;4.396;2023-07-09T13:08:19;25.60;99.90
19829;DHT22;10075;50.924;4.396;2023-07-09T13:10:46;25.60;99.90
19829;DHT22;10075;50.924;4.396;2023-07-09T13:13:19;25.50;99.90
19829;DHT22;10075;50.924;4.396;2023-07-09T13:15:49;25.60;99.90
19829;DHT22;10075;50.924;4.396;2023-07-09T13:18:16;25.70;99.90
19829;DHT22;10075;50.924;4.396;2023-07-09T13:20:45;25.80;99.90
19829;DHT22;10075;50.924;4.396;2023-07-09T13:23:16;26.00;99.90
19829;DHT22;10075;50.924;4.396;2023-07-09T13:25:44;26.10;99.90
19829;DHT22;10075;50.924;4.396;2023-07-09T13:28:17;26.20;99.90
19829;DHT22;10075;50.924;4.396;2023-07-09T13:30:45;26.30;99.90
19829;DHT22;10075;50.924;4.396;2023-07-09T13:33:12;26.50;99.90
19829;DHT22;10075;50.924;4.396;2023-07-09T13:35:40;26.70;99.90
19829;DHT22;10075;50.924;4.396;2023-07-09T13:38:14;26.80;99.90
19829;DHT22;10075;50.924;4.396;2023-07-09T13:40:43;26.90;99.90
19829;DHT22;10075;50.924;4.396;2023-07-09T13:43:15;26.90;99.90
19829;DHT22;10075;50.924;4.396;2023-07-09T13:45:44;26.80;99.90
19829;DHT22;10075;50.924;4.396;2023-07-09T13:48:14;26.80;99.90
19829;DHT22;10075;50.924;4.396;2023-07-09T13:50:42;26.70;99.90
19829;DHT22;10075;50.924;4.396;2023-07-09T13:53:13;26.70;99.90
19829;DHT22;10075;50.924;4.396;2023-07-09T13:55:41;26.80;99.90
19829;DHT22;10075;50.924;4.396;2023-07-09T13:58:09;27.00;99.90
19829;DHT22;10075;50.924;4.396;2023-07-09T14:00:37;27.20;99.90
19829;DHT22;10075;50.924;4.396;2023-07-09T14:03:14;27.30;99.90
19829;DHT22;10075;50.924;4.396;2023-07-09T14:05:41;27.50;99.90
19829;DHT22;10075;50.924;4.396;2023-07-09T14:08:08;27.70;99.90
19829;DHT22;10075;50.924;4.396;2023-07-09T14:10:36;28.10;99.90
19829;DHT22;10075;50.924;4.396;2023-07-09T14:13:03;28.60;99.90
19829;DHT22;10075;50.924;4.396;2023-07-09T14:15:30;28.90;99.90
19829;DHT22;10075;50.924;4.396;2023-07-09T14:17:58;29.20;99.90
19829;DHT22;10075;50.924;4.396;2023-07-09T14:20:26;29.70;99.90
19829;DHT22;10075;50.924;4.396;2023-07-09T14:22:53;30.10;99.90
19829;DHT22;10075;50.924;4.396;2023-07-09T14:25:24;30.50;99.90
19829;DHT22;10075;50.924;4.396;2023-07-09T14:27:52;30.90;99.90
19829;DHT22;10075;50.924;4.396;2023-07-09T14:30:22;31.00;99.90
19829;DHT22;10075;50.924;4.396;2023-07-09T14:32:50;31.20;99.90
19829;DHT22;10075;50.924;4.396;2023-07-09T14:35:18;31.60;99.90
19829;DHT22;10075;50.924;4.396;2023-07-09T14:37:49;32.80;99.90
19829;DHT22;10075;50.924;4.396;2023-07-09T14:40:17;34.20;98.40
19829;DHT22;10075;50.924;4.396;2023-07-09T14:42:46;35.50;95.20
19829;DHT22;10075;50.924;4.396;2023-07-09T14:45:18;36.20;92.70
19829;DHT22;10075;50.924;4.396;2023-07-09T14:47:46;36.00;91.80
19829;DHT22;10075;50.924;4.396;2023-07-09T14:50:13;35.90;92.20
19829;DHT22;10075;50.924;4.396;2023-07-09T14:52:41;36.30;91.60
19829;DHT22;10075;50.924;4.396;2023-07-09T14:55:14;37.20;90.20
19829;DHT22;10075;50.924;4.396;2023-07-09T14:57:41;37.70;88.40
19829;DHT22;10075;50.924;4.396;2023-07-09T15:00:13;37.30;87.50
19829;DHT22;10075;50.924;4.396;2023-07-09T15:02:41;36.90;87.90
19829;DHT22;10075;50.924;4.396;2023-07-09T15:05:13;36.50;88.40
19829;DHT22;10075;50.924;4.396;2023-07-09T15:07:40;36.30;87.70
19829;DHT22;10075;50.924;4.396;2023-07-09T15:10:13;36.40;88.00
19829;DHT22;10075;50.924;4.396;2023-07-09T15:12:41;37.50;86.20
19829;DHT22;10075;50.924;4.396;2023-07-09T15:15:16;39.10;82.30
19829;DHT22;10075;50.924;4.396;2023-07-09T15:17:44;40.60;79.60
19829;DHT22;10075;50.924;4.396;2023-07-09T15:20:14;41.30;75.10
19829;DHT22;10075;50.924;4.396;2023-07-09T15:22:41;42.30;72.80
19829;DHT22;10075;50.924;4.396;2023-07-09T15:25:14;42.50;68.60
19829;DHT22;10075;50.924;4.396;2023-07-09T15:27:41;42.80;68.30
19829;DHT22;10075;50.924;4.396;2023-07-09T15:30:17;42.80;68.80
19829;DHT22;10075;50.924;4.396;2023-07-09T15:32:46;43.10;67.40
19829;DHT22;10075;50.924;4.396;2023-07-09T15:35:13;43.70;66.20
19829;DHT22;10075;50.924;4.396;2023-07-09T15:37:41;43.80;63.00
19829;DHT22;10075;50.924;4.396;2023-07-09T15:40:18;43.60;62.90
19829;DHT22;10075;50.924;4.396;2023-07-09T15:42:47;44.00;62.80